Time;durP1;ratioP1;P1;durP2;ratioP2;P2;SDS_P1;SDS_P2;PMS_P1;PMS_P2;Temp;Humidity;BMP_temperature;BMP_pressure;BME280_temperature;BME280_humidity;BME280_pressure;Samples;Min_cycle;Max_cycle;Signal;HPM_P1;HPM_P2
2021/04/22 00:00:37;;;;;;;18.37;12.20;;;7.70;99.90;;;;;;4237660;27;20031;-66
2021/04/22 00:02:38;;;;;;;23.30;12.97;;;7.70;99.90;;;;;;4239671;28;20027;-68
2021/04/22 00:04:39;;;;;;;21.33;13.83;;;7.80;99.90;;;;;;4239468;27;20051;-67
2021/04/22 00:06:41;;;;;;;20.33;12.93;;;7.70;99.90;;;;;;4237670;28;20027;-64
2021/04/22 00:08:42;;;;;;;20.53;12.30;;;7.80;99.90;;;;;;4223260;28;20092;-62
2021/04/22 00:10:49;;;;;;;23.70;13.20;;;7.80;99.90;;;;;;4239242;27;20816;-67
2021/04/22 00:12:50;;;;;;;19.23;12.83;;;7.80;99.90;;;;;;4239230;28;20031;-65
2021/04/22 00:14:51;;;;;;;16.63;11.77;;;7.90;99.90;;;;;;4239269;28;20076;-67
2021/04/22 00:16:53;;;;;;;18.07;12.13;;;7.90;99.90;;;;;;4239198;27;20043;-65
2021/04/22 00:18:54;;;;;;;22.13;13.67;;;7.90;99.90;;;;;;4237390;28;20043;-66
2021/04/22 00:20:57;;;;;;;21.53;11.20;;;7.90;99.90;;;;;;4238781;27;20031;-65
2021/04/22 00:22:58;;;;;;;17.97;10.90;;;8.00;99.90;;;;;;4237162;28;20072;-67
2021/04/22 00:24:59;;;;;;;17.43;10.97;;;8.00;99.90;;;;;;4239050;28;20051;-67
2021/04/22 00:27:00;;;;;;;15.20;9.77;;;8.10;99.90;;;;;;4238653;27;20036;-65
2021/04/22 00:29:02;;;;;;;16.87;10.83;;;8.00;99.90;;;;;;4231380;27;20035;-67
2021/04/22 00:31:03;;;;;;;15.97;11.23;;;8.10;99.90;;;;;;4225095;28;20027;-65
2021/04/22 00:33:09;;;;;;;18.03;10.53;;;8.10;99.90;;;;;;4225532;28;20081;-66
2021/04/22 00:35:12;;;;;;;21.33;10.80;;;8.10;99.90;;;;;;4227237;27;20036;-65
2021/04/22 00:37:13;;;;;;;18.80;10.93;;;8.10;99.90;;;;;;4242427;27;20088;-67
2021/04/22 00:39:14;;;;;;;14.80;10.73;;;8.00;99.90;;;;;;4242466;27;20071;-68
2021/04/22 00:41:16;;;;;;;18.67;11.07;;;8.10;99.90;;;;;;4242253;27;20081;-67
2021/04/22 00:43:19;;;;;;;18.53;10.10;;;8.10;99.90;;;;;;4242725;27;20019;-67
2021/04/22 00:45:21;;;;;;;14.40;9.17;;;8.10;99.90;;;;;;4242340;27;20135;-65
2021/04/22 00:47:22;;;;;;;18.03;10.07;;;8.10;99.90;;;;;;4242508;27;20031;-67
2021/04/22 00:49:24;;;;;;;15.53;9.10;;;8.10;99.90;;;;;;4241816;27;20452;-67
2021/04/22 00:51:25;;;;;;;14.47;9.83;;;8.10;99.90;;;;;;4242072;27;20064;-63
2021/04/22 00:53:27;;;;;;;16.13;10.93;;;8.10;99.90;;;;;;4242418;27;20046;-67
2021/04/22 00:55:29;;;;;;;23.07;10.90;;;8.10;99.90;;;;;;4241806;27;20087;-67
2021/04/22 00:57:30;;;;;;;15.30;9.80;;;8.10;99.90;;;;;;4241415;27;20071;-63
2021/04/22 00:59:31;;;;;;;16.63;9.40;;;8.00;99.90;;;;;;4242280;27;20019;-67
2021/04/22 01:01:32;;;;;;;18.33;9.70;;;8.00;99.90;;;;;;4239642;27;20578;-62
2021/04/22 01:03:34;;;;;;;15.33;10.33;;;7.90;99.90;;;;;;4241876;27;20023;-66
2021/04/22 01:05:42;;;;;;;15.67;10.70;;;7.90;99.90;;;;;;4242225;27;20027;-67
2021/04/22 01:07:44;;;;;;;14.23;9.10;;;7.80;99.90;;;;;;4240442;27;20067;-63
2021/04/22 01:09:45;;;;;;;18.00;11.03;;;7.80;99.90;;;;;;4241877;27;20108;-65
2021/04/22 01:11:47;;;;;;;17.37;10.70;;;7.70;99.90;;;;;;4241805;27;20506;-68
2021/04/22 01:13:48;;;;;;;15.30;9.30;;;7.70;99.90;;;;;;4242392;27;20035;-65
2021/04/22 01:15:49;;;;;;;13.53;9.37;;;7.60;99.90;;;;;;4240205;27;20424;-68
2021/04/22 01:17:51;;;;;;;14.17;9.97;;;7.60;99.90;;;;;;4242043;27;20027;-64
2021/04/22 01:19:53;;;;;;;13.93;9.23;;;7.50;99.90;;;;;;4241565;27;20055;-62
2021/04/22 01:21:55;;;;;;;17.90;10.57;;;7.40;99.90;;;;;;4241568;27;20043;-68
2021/04/22 01:23:56;;;;;;;17.37;11.03;;;7.40;99.90;;;;;;4241684;27;20661;-65
2021/04/22 01:25:57;;;;;;;16.93;11.67;;;7.40;99.90;;;;;;4240995;27;20555;-67
2021/04/22 01:28:00;;;;;;;17.17;10.67;;;7.30;99.90;;;;;;4241619;27;20372;-68
2021/04/22 01:30:02;;;;;;;17.43;11.37;;;7.40;99.90;;;;;;4241462;27;20023;-66
2021/04/22 01:32:06;;;;;;;15.10;10.83;;;7.30;99.90;;;;;;4241298;27;20031;-65
2021/04/22 01:34:10;;;;;;;16.23;10.40;;;7.30;99.90;;;;;;4240345;27;20047;-62
2021/04/22 01:36:12;;;;;;;17.43;10.60;;;7.30;99.90;;;;;;4241327;27;20072;-67
2021/04/22 01:38:13;;;;;;;25.73;12.70;;;7.20;99.90;;;;;;4241354;27;20084;-63
2021/04/22 01:40:16;;;;;;;17.33;11.67;;;7.10;99.90;;;;;;4240820;27;20039;-68
2021/04/22 01:42:17;;;;;;;22.20;12.40;;;7.00;99.90;;;;;;4240334;27;20027;-65
2021/04/22 01:44:18;;;;;;;23.13;12.57;;;6.90;99.90;;;;;;4241380;27;20411;-67
2021/04/22 01:46:19;;;;;;;20.43;12.70;;;6.80;99.90;;;;;;4241149;27;20095;-63
2021/04/22 01:48:21;;;;;;;22.60;12.57;;;6.70;99.90;;;;;;4224450;27;20088;-63
2021/04/22 01:50:25;;;;;;;22.50;13.70;;;6.60;99.90;;;;;;4223853;28;20048;-63
2021/04/22 01:52:27;;;;;;;19.80;13.27;;;6.60;99.90;;;;;;4224232;28;20553;-65
2021/04/22 01:54:28;;;;;;;22.97;13.57;;;6.50;99.90;;;;;;4223792;27;21263;-63
2021/04/22 01:56:29;;;;;;;26.40;13.90;;;6.50;99.90;;;;;;4224256;28;20031;-68
2021/04/22 01:58:30;;;;;;;24.07;13.57;;;6.50;99.90;;;;;;4224178;28;20438;-68
2021/04/22 02:00:38;;;;;;;22.53;13.80;;;6.50;99.90;;;;;;4227779;27;20035;-66
2021/04/22 02:02:40;;;;;;;24.77;14.87;;;6.50;99.90;;;;;;4241068;27;20046;-68
2021/04/22 02:04:41;;;;;;;28.17;13.70;;;6.50;99.90;;;;;;4241001;27;20039;-66
2021/04/22 02:06:42;;;;;;;23.53;14.33;;;6.50;99.90;;;;;;4240788;27;20480;-67
2021/04/22 02:08:44;;;;;;;20.13;13.30;;;6.60;99.90;;;;;;4241116;27;20084;-67
2021/04/22 02:10:45;;;;;;;21.80;12.93;;;6.60;99.90;;;;;;4240525;27;20023;-67
2021/04/22 02:12:47;;;;;;;21.97;13.30;;;6.70;99.90;;;;;;4240753;27;20055;-65
2021/04/22 02:14:48;;;;;;;17.77;11.70;;;6.70;99.90;;;;;;4240566;27;20091;-63
2021/04/22 02:16:49;;;;;;;16.87;11.63;;;6.70;99.90;;;;;;4241175;27;20080;-66
2021/04/22 02:18:50;;;;;;;19.87;12.07;;;6.70;99.90;;;;;;4224743;27;20081;-67
2021/04/22 02:20:52;;;;;;;19.50;12.60;;;6.70;99.90;;;;;;4223713;28;20810;-67
2021/04/22 02:22:54;;;;;;;19.60;12.97;;;6.70;99.90;;;;;;4223431;28;20512;-63
2021/04/22 02:24:55;;;;;;;16.87;11.80;;;6.70;99.90;;;;;;4223505;28;20043;-66
2021/04/22 02:26:56;;;;;;;18.30;12.07;;;6.70;99.90;;;;;;4223629;28;20028;-67
2021/04/22 02:28:57;;;;;;;17.57;11.97;;;6.70;99.90;;;;;;4223465;28;20032;-67
2021/04/22 02:30:58;;;;;;;16.83;11.27;;;6.60;99.90;;;;;;4223586;28;20104;-68
2021/04/22 02:33:02;;;;;;;21.07;12.80;;;6.60;99.90;;;;;;4224733;27;20056;-66
2021/04/22 02:35:08;;;;;;;20.97;12.77;;;6.50;99.90;;;;;;4223886;28;20035;-64
2021/04/22 02:37:09;;;;;;;19.63;13.00;;;6.50;99.90;;;;;;4223459;28;20035;-68
2021/04/22 02:39:10;;;;;;;22.57;13.73;;;6.50;99.90;;;;;;4223652;28;20425;-64
2021/04/22 02:41:11;;;;;;;20.67;13.03;;;6.50;99.90;;;;;;4234016;27;20764;-65
2021/04/22 02:43:15;;;;;;;21.33;13.00;;;6.40;99.90;;;;;;4241215;27;20053;-67
2021/04/22 02:45:22;;;;;;;25.93;14.53;;;6.40;99.90;;;;;;4240185;27;20043;-66
2021/04/22 02:47:23;;;;;;;19.73;13.87;;;6.30;99.90;;;;;;4240256;27;20031;-67
2021/04/22 02:49:24;;;;;;;20.93;13.23;;;6.30;99.90;;;;;;4239436;27;20047;-66
2021/04/22 02:51:25;;;;;;;24.17;14.17;;;6.20;99.90;;;;;;4240134;27;20038;-67
2021/04/22 02:53:27;;;;;;;25.30;13.93;;;6.20;99.90;;;;;;4240033;27;20043;-63
2021/04/22 02:55:28;;;;;;;22.63;14.23;;;6.10;99.90;;;;;;4240413;27;20031;-61
2021/04/22 02:57:29;;;;;;;28.10;13.97;;;6.10;99.90;;;;;;4240171;27;20031;-67
2021/04/22 02:59:30;;;;;;;26.63;14.13;;;6.10;99.90;;;;;;4238700;27;20039;-63
2021/04/22 03:01:31;;;;;;;21.23;13.63;;;6.10;99.90;;;;;;4240030;27;20115;-62
2021/04/22 03:03:32;;;;;;;24.20;13.90;;;6.10;99.90;;;;;;4239791;27;20039;-64
2021/04/22 03:05:34;;;;;;;21.13;13.47;;;6.10;99.90;;;;;;4240219;27;20046;-68
2021/04/22 03:07:35;;;;;;;20.80;13.57;;;6.00;99.90;;;;;;4239614;27;20360;-67
2021/04/22 03:09:36;;;;;;;19.87;13.17;;;6.00;99.90;;;;;;4240073;27;20031;-65
2021/04/22 03:11:38;;;;;;;23.43;14.77;;;6.00;99.90;;;;;;4239962;27;20022;-66
2021/04/22 03:13:39;;;;;;;26.00;14.73;;;6.00;99.90;;;;;;4225047;27;20039;-65
2021/04/22 03:15:41;;;;;;;27.17;16.27;;;6.00;99.90;;;;;;4222418;28;20108;-64
2021/04/22 03:17:43;;;;;;;29.73;16.83;;;5.90;99.90;;;;;;4223038;28;20081;-66
2021/04/22 03:19:44;;;;;;;30.80;19.17;;;5.90;99.90;;;;;;4222844;28;20317;-64
2021/04/22 03:21:46;;;;;;;29.40;18.23;;;5.80;99.90;;;;;;4222804;28;20159;-68
2021/04/22 03:23:47;;;;;;;29.87;16.23;;;5.80;99.90;;;;;;4222417;28;20321;-64
2021/04/22 03:25:48;;;;;;;26.97;16.03;;;5.70;99.90;;;;;;4222335;28;20537;-66
2021/04/22 03:27:49;;;;;;;27.93;16.40;;;5.60;99.90;;;;;;4222596;28;20283;-64
2021/04/22 03:29:50;;;;;;;28.10;16.07;;;5.60;99.90;;;;;;4222478;28;20275;-64
2021/04/22 03:31:51;;;;;;;26.63;16.07;;;5.60;99.90;;;;;;4223174;27;20276;-68
2021/04/22 03:33:53;;;;;;;24.80;14.87;;;5.50;99.90;;;;;;4222552;28;20271;-65
2021/04/22 03:35:54;;;;;;;31.13;16.17;;;5.60;99.90;;;;;;4222878;28;20260;-67
2021/04/22 03:37:55;;;;;;;28.80;16.23;;;5.60;99.90;;;;;;4222973;28;20302;-67
2021/04/22 03:39:57;;;;;;;23.40;14.80;;;5.50;99.90;;;;;;4222474;28;20268;-67
2021/04/22 03:41:59;;;;;;;29.80;15.17;;;5.50;99.90;;;;;;4222525;28;20268;-67
2021/04/22 03:44:00;;;;;;;26.70;16.30;;;5.50;99.90;;;;;;4221584;28;20337;-68
2021/04/22 03:46:01;;;;;;;28.40;15.87;;;5.50;99.90;;;;;;4221838;28;20317;-67
2021/04/22 03:48:02;;;;;;;24.90;15.07;;;5.60;99.90;;;;;;4220574;28;20268;-66
2021/04/22 03:50:08;;;;;;;27.37;15.93;;;5.50;99.90;;;;;;4222019;28;20279;-66
2021/04/22 03:52:10;;;;;;;29.00;15.73;;;5.50;99.90;;;;;;4221716;27;20298;-67
2021/04/22 03:54:11;;;;;;;24.67;15.17;;;5.50;99.90;;;;;;4220569;28;20856;-64
2021/04/22 03:56:12;;;;;;;25.33;14.83;;;5.50;99.90;;;;;;4222214;28;20809;-67
2021/04/22 03:58:14;;;;;;;27.60;16.57;;;5.50;99.90;;;;;;4230862;27;20410;-66
2021/04/22 04:00:18;;;;;;;27.33;16.10;;;5.60;99.90;;;;;;4235870;27;20275;-64
2021/04/22 04:02:19;;;;;;;23.87;15.20;;;5.80;99.90;;;;;;4236923;28;20267;-66
2021/04/22 04:04:21;;;;;;;23.90;13.33;;;5.80;99.90;;;;;;4238891;27;20316;-67
2021/04/22 04:06:22;;;;;;;23.03;13.83;;;5.80;99.90;;;;;;4239353;28;20248;-65
2021/04/22 04:08:23;;;;;;;24.70;15.30;;;5.80;99.90;;;;;;4238463;28;20263;-64
2021/04/22 04:10:24;;;;;;;24.63;14.70;;;5.90;99.90;;;;;;4238874;27;20263;-66
2021/04/22 04:12:27;;;;;;;25.43;15.27;;;6.10;99.90;;;;;;4238884;27;20767;-67
2021/04/22 04:14:28;;;;;;;25.93;15.10;;;6.30;99.90;;;;;;4239212;27;20308;-66
2021/04/22 04:16:29;;;;;;;25.17;16.07;;;6.60;99.90;;;;;;4227401;28;20435;-65
2021/04/22 04:18:30;;;;;;;23.27;14.37;;;6.80;99.90;;;;;;4221945;28;20276;-66
2021/04/22 04:20:32;;;;;;;25.00;15.17;;;7.00;99.90;;;;;;4221640;28;20666;-60
2021/04/22 04:22:33;;;;;;;21.70;13.43;;;7.20;99.90;;;;;;4225386;28;20043;-68
2021/04/22 04:24:34;;;;;;;29.53;14.03;;;7.50;99.90;;;;;;4221407;28;20116;-69
2021/04/22 04:26:36;;;;;;;19.23;12.83;;;7.60;99.90;;;;;;4221533;28;20028;-66
2021/04/22 04:28:37;;;;;;;21.30;13.60;;;7.60;99.90;;;;;;4231532;28;20115;-68
2021/04/22 04:30:38;;;;;;;21.03;12.07;;;7.60;99.90;;;;;;4239069;27;20521;-64
2021/04/22 04:32:39;;;;;;;24.33;13.20;;;7.60;99.90;;;;;;4223897;28;20032;-66
2021/04/22 04:34:41;;;;;;;20.03;12.10;;;7.60;99.90;;;;;;4221392;28;20154;-66
2021/04/22 04:36:45;;;;;;;20.57;11.57;;;7.50;99.90;;;;;;4211333;28;20048;-63
2021/04/22 04:38:46;;;;;;;19.40;11.63;;;7.40;99.90;;;;;;4221646;28;20043;-67
2021/04/22 04:40:47;;;;;;;20.10;12.67;;;7.30;99.90;;;;;;4221180;28;20043;-67
2021/04/22 04:42:49;;;;;;;18.87;12.40;;;7.20;99.90;;;;;;4221408;28;20044;-67
2021/04/22 04:44:50;;;;;;;19.17;12.20;;;7.20;99.90;;;;;;4226591;28;20544;-63
2021/04/22 04:46:52;;;;;;;23.43;12.37;;;7.10;99.90;;;;;;4221131;28;20027;-63
2021/04/22 04:48:54;;;;;;;21.80;13.20;;;7.10;99.90;;;;;;4219928;28;20047;-61
2021/04/22 04:50:55;;;;;;;27.80;12.43;;;7.00;99.90;;;;;;4228911;28;20104;-70
2021/04/22 04:52:56;;;;;;;22.87;13.60;;;7.00;99.90;;;;;;4237025;28;20036;-62
2021/04/22 04:54:57;;;;;;;20.07;11.83;;;7.00;99.90;;;;;;4238532;27;20051;-63
2021/04/22 04:56:59;;;;;;;18.37;11.40;;;7.10;99.90;;;;;;4238740;28;20076;-59
2021/04/22 04:59:00;;;;;;;20.17;12.67;;;7.10;99.90;;;;;;4237712;28;20027;-63
2021/04/22 05:01:01;;;;;;;19.97;12.93;;;7.40;99.90;;;;;;4238264;28;20031;-63
2021/04/22 05:03:02;;;;;;;18.53;12.13;;;7.90;99.90;;;;;;4237285;28;20023;-64
2021/04/22 05:05:04;;;;;;;24.27;12.63;;;8.30;99.90;;;;;;4238477;28;20088;-63
2021/04/22 05:07:06;;;;;;;20.17;12.87;;;8.70;99.90;;;;;;4237895;27;20039;-67
2021/04/22 05:09:07;;;;;;;17.53;11.57;;;8.80;99.90;;;;;;4239103;27;20435;-64
2021/04/22 05:11:09;;;;;;;22.33;11.83;;;9.00;99.90;;;;;;4238258;28;20031;-63
2021/04/22 05:13:11;;;;;;;17.17;11.03;;;9.20;99.90;;;;;;4237296;28;20035;-62
2021/04/22 05:15:12;;;;;;;19.83;12.50;;;9.30;99.90;;;;;;4238656;28;20039;-68
2021/04/22 05:17:15;;;;;;;19.17;11.80;;;9.80;99.90;;;;;;4239022;27;20051;-63
2021/04/22 05:19:17;;;;;;;16.50;10.90;;;10.00;99.90;;;;;;4241268;27;20039;-65
2021/04/22 05:21:18;;;;;;;20.33;10.83;;;9.90;99.90;;;;;;4240729;27;20043;-62
2021/04/22 05:23:20;;;;;;;19.07;11.53;;;9.60;99.90;;;;;;4241067;27;20035;-65
2021/04/22 05:25:21;;;;;;;15.90;11.17;;;9.40;99.90;;;;;;4240603;27;20091;-64
2021/04/22 05:27:22;;;;;;;18.97;11.37;;;9.20;99.90;;;;;;4237070;27;20084;-63
2021/04/22 05:29:23;;;;;;;16.70;10.63;;;9.10;99.90;;;;;;4224514;27;20077;-70
2021/04/22 05:31:26;;;;;;;17.97;10.17;;;8.90;99.90;;;;;;4223932;27;20036;-71
2021/04/22 05:33:27;;;;;;;18.97;11.33;;;8.60;99.90;;;;;;4233143;27;20076;-73
2021/04/22 05:35:28;;;;;;;16.03;10.67;;;8.60;99.90;;;;;;4239647;27;20095;-65
2021/04/22 05:37:29;;;;;;;25.73;11.47;;;8.50;99.90;;;;;;4240773;27;20120;-68
2021/04/22 05:39:30;;;;;;;24.53;12.03;;;8.40;99.90;;;;;;4231109;27;20032;-66
2021/04/22 05:41:33;;;;;;;22.07;10.97;;;8.60;99.90;;;;;;4224111;28;20044;-67
2021/04/22 05:43:34;;;;;;;20.73;12.27;;;8.90;99.90;;;;;;4224648;28;20072;-66
2021/04/22 05:45:36;;;;;;;18.60;11.13;;;9.20;99.90;;;;;;4224374;28;20088;-67
2021/04/22 05:47:37;;;;;;;18.13;11.63;;;9.70;99.90;;;;;;4224352;28;20479;-68
2021/04/22 05:49:38;;;;;;;22.77;11.90;;;10.40;99.90;;;;;;4223000;28;20056;-64
2021/04/22 05:51:41;;;;;;;25.33;13.23;;;10.80;99.90;;;;;;4223647;28;20080;-63
2021/04/22 05:53:43;;;;;;;21.70;11.27;;;11.20;99.90;;;;;;4224003;28;20023;-65
2021/04/22 05:55:44;;;;;;;18.67;11.03;;;11.50;99.90;;;;;;4223272;28;20073;-63
2021/04/22 05:57:47;;;;;;;17.83;11.17;;;11.60;99.90;;;;;;4223407;28;20896;-72
2021/04/22 05:59:48;;;;;;;18.17;10.43;;;12.20;99.90;;;;;;4222823;28;20435;-68
2021/04/22 06:01:49;;;;;;;16.73;9.03;;;12.50;99.90;;;;;;4223290;28;20053;-65
2021/04/22 06:03:50;;;;;;;15.97;9.90;;;12.60;99.90;;;;;;4222956;28;20061;-68
2021/04/22 06:05:52;;;;;;;19.80;10.00;;;12.60;99.90;;;;;;4223593;27;20562;-71
2021/04/22 06:07:53;;;;;;;16.00;9.57;;;12.80;99.90;;;;;;4223120;28;20036;-64
2021/04/22 06:09:55;;;;;;;18.90;11.17;;;13.10;99.90;;;;;;4223188;28;20035;-66
2021/04/22 06:11:56;;;;;;;14.47;9.13;;;13.00;99.90;;;;;;4229148;27;20092;-64
2021/04/22 06:13:57;;;;;;;12.67;8.77;;;13.00;99.90;;;;;;4241436;27;20092;-67
2021/04/22 06:15:58;;;;;;;14.77;9.43;;;13.10;99.90;;;;;;4239180;27;20080;-64
2021/04/22 06:17:59;;;;;;;18.40;11.00;;;13.10;99.90;;;;;;4228485;27;20032;-65
2021/04/22 06:20:01;;;;;;;16.90;10.50;;;13.20;99.90;;;;;;4232054;27;20027;-63
2021/04/22 06:22:02;;;;;;;17.27;10.60;;;13.20;99.90;;;;;;4226340;27;20028;-65
2021/04/22 06:24:04;;;;;;;18.50;11.43;;;13.20;99.90;;;;;;4222969;28;20081;-64
2021/04/22 06:26:05;;;;;;;17.83;10.60;;;13.20;99.90;;;;;;4235717;27;20781;-66
2021/04/22 06:28:06;;;;;;;17.97;9.87;;;13.10;99.90;;;;;;4238125;27;20030;-63
2021/04/22 06:30:09;;;;;;;22.50;11.83;;;13.00;99.90;;;;;;4237800;27;20479;-68
2021/04/22 06:32:11;;;;;;;20.10;11.03;;;12.90;99.90;;;;;;4239380;27;20031;-64
2021/04/22 06:34:12;;;;;;;19.67;11.80;;;12.40;99.90;;;;;;4239520;27;20111;-63
2021/04/22 06:36:15;;;;;;;16.10;11.10;;;12.00;99.90;;;;;;4225126;27;20040;-62
2021/04/22 06:38:16;;;;;;;24.37;10.57;;;11.80;99.90;;;;;;4222811;28;20031;-68
2021/04/22 06:40:20;;;;;;;21.67;12.87;;;11.70;99.90;;;;;;4231622;27;20027;-69
2021/04/22 06:42:21;;;;;;;23.23;12.40;;;11.70;99.90;;;;;;4227296;27;20432;-70
2021/04/22 06:44:22;;;;;;;20.60;12.70;;;11.70;99.90;;;;;;4222897;28;20077;-69
2021/04/22 06:46:23;;;;;;;18.47;12.40;;;11.90;99.90;;;;;;4221388;27;20101;-68
2021/04/22 06:48:25;;;;;;;21.27;12.63;;;12.00;99.90;;;;;;4222965;27;20047;-68
2021/04/22 06:50:26;;;;;;;26.70;13.13;;;12.10;99.90;;;;;;4221764;28;20503;-69
2021/04/22 06:52:27;;;;;;;17.63;11.07;;;12.20;99.90;;;;;;4221862;28;20039;-70
2021/04/22 06:54:28;;;;;;;25.67;12.83;;;12.20;99.90;;;;;;4221802;28;20031;-70
2021/04/22 06:56:29;;;;;;;17.87;11.20;;;12.30;99.90;;;;;;4222476;28;20076;-64
2021/04/22 06:58:30;;;;;;;18.87;11.33;;;12.30;99.90;;;;;;4222641;28;20603;-69
2021/04/22 07:00:35;;;;;;;20.90;12.23;;;12.20;99.90;;;;;;4222729;28;20032;-72
2021/04/22 07:02:37;;;;;;;21.17;11.17;;;12.30;99.90;;;;;;4221476;28;20028;-63
2021/04/22 07:04:38;;;;;;;18.63;11.03;;;12.40;99.90;;;;;;4224331;27;20672;-64
2021/04/22 07:06:39;;;;;;;17.37;11.97;;;12.30;99.90;;;;;;4222130;28;20031;-63
2021/04/22 07:08:42;;;;;;;17.77;11.17;;;12.30;99.90;;;;;;4221171;28;20459;-68
2021/04/22 07:10:43;;;;;;;17.97;11.77;;;12.40;99.90;;;;;;4222465;28;20078;-70
2021/04/22 07:12:45;;;;;;;21.07;11.47;;;12.40;99.90;;;;;;4222321;28;20031;-67
2021/04/22 07:14:46;;;;;;;19.33;11.43;;;12.40;99.90;;;;;;4236883;27;20027;-64
2021/04/22 07:16:47;;;;;;;16.93;11.43;;;12.70;99.90;;;;;;4222786;27;20096;-66
2021/04/22 07:18:50;;;;;;;20.83;11.43;;;13.10;99.90;;;;;;4222008;28;20088;-64
2021/04/22 07:20:51;;;;;;;16.77;10.63;;;13.40;99.90;;;;;;4222162;28;20124;-66
2021/04/22 07:22:54;;;;;;;19.57;11.00;;;13.60;99.90;;;;;;4221714;28;20077;-64
2021/04/22 07:24:56;;;;;;;15.77;9.27;;;13.60;99.90;;;;;;4222093;27;20101;-63
2021/04/22 07:26:57;;;;;;;14.27;9.27;;;13.60;99.90;;;;;;4221948;28;20433;-63
2021/04/22 07:28:58;;;;;;;15.90;10.50;;;13.60;99.90;;;;;;4238882;27;20443;-64
2021/04/22 07:31:00;;;;;;;15.57;10.13;;;13.60;99.90;;;;;;4222209;27;20475;-67
2021/04/22 07:33:01;;;;;;;18.80;10.77;;;13.60;99.90;;;;;;4221031;28;20065;-63
2021/04/22 07:35:03;;;;;;;18.60;10.00;;;13.60;99.90;;;;;;4236353;27;20860;-66
2021/04/22 07:37:05;;;;;;;13.50;9.87;;;13.50;99.90;;;;;;4239409;27;20483;-63
2021/04/22 07:39:06;;;;;;;15.27;10.23;;;13.50;99.90;;;;;;4238131;27;20088;-63
2021/04/22 07:41:07;;;;;;;13.27;9.77;;;13.40;99.90;;;;;;4238334;27;20471;-64
2021/04/22 07:43:11;;;;;;;18.40;9.93;;;13.40;99.90;;;;;;4238189;27;20088;-69
2021/04/22 07:45:14;;;;;;;16.90;10.20;;;13.40;99.90;;;;;;4237594;27;20506;-61
2021/04/22 07:47:19;;;;;;;15.23;10.30;;;13.30;99.90;;;;;;4238410;27;20023;-62
2021/04/22 07:49:21;;;;;;;14.20;10.30;;;13.40;99.90;;;;;;4238300;27;20051;-63
2021/04/22 07:51:22;;;;;;;16.63;10.80;;;13.40;99.90;;;;;;4237223;27;20428;-66
2021/04/22 07:53:23;;;;;;;15.73;9.90;;;13.50;99.90;;;;;;4238153;27;20035;-62
2021/04/22 07:55:32;;;;;;;19.90;11.17;;;13.70;99.90;;;;;;4238135;27;20062;-62
2021/04/22 07:57:33;;;;;;;15.93;10.17;;;13.80;99.90;;;;;;4237672;27;20035;-62
2021/04/22 07:59:35;;;;;;;15.77;10.43;;;13.90;99.90;;;;;;4238169;27;20080;-67
2021/04/22 08:01:36;;;;;;;14.03;10.27;;;13.80;99.90;;;;;;4229495;27;20027;-69
2021/04/22 08:03:37;;;;;;;19.60;11.30;;;13.80;99.90;;;;;;4222196;28;20382;-68
2021/04/22 08:05:39;;;;;;;18.97;10.83;;;13.90;99.90;;;;;;4219901;28;20272;-69
2021/04/22 08:07:40;;;;;;;15.60;10.57;;;13.90;99.90;;;;;;4223725;28;20034;-65
2021/04/22 08:09:41;;;;;;;18.90;11.57;;;13.90;99.90;;;;;;4221528;28;20535;-64
2021/04/22 08:11:42;;;;;;;18.47;11.27;;;13.90;99.90;;;;;;4222829;28;20200;-67
2021/04/22 08:13:43;;;;;;;20.20;12.00;;;13.90;99.90;;;;;;4221766;28;20023;-65
2021/04/22 08:15:47;;;;;;;15.13;11.23;;;13.80;99.90;;;;;;4221826;28;20086;-68
2021/04/22 08:17:49;;;;;;;15.73;10.87;;;13.90;99.90;;;;;;4221272;28;20092;-65
2021/04/22 08:19:50;;;;;;;16.03;10.07;;;13.90;99.90;;;;;;4232940;28;20179;-67
2021/04/22 08:21:51;;;;;;;15.73;11.67;;;14.00;99.90;;;;;;4237978;28;20035;-64
2021/04/22 08:23:53;;;;;;;19.37;11.30;;;13.90;99.90;;;;;;4236913;28;20035;-69
2021/04/22 08:25:56;;;;;;;15.33;10.87;;;13.90;99.90;;;;;;4225241;28;20373;-66
2021/04/22 08:27:58;;;;;;;18.83;11.37;;;13.90;99.90;;;;;;4222013;28;20089;-70
2021/04/22 08:29:59;;;;;;;19.67;12.57;;;13.90;99.90;;;;;;4221542;28;20477;-62
2021/04/22 08:32:00;;;;;;;19.27;10.13;;;14.10;99.90;;;;;;4221081;28;20746;-65
2021/04/22 08:34:07;;;;;;;16.90;11.17;;;14.10;99.90;;;;;;4221472;28;20035;-63
2021/04/22 08:36:08;;;;;;;20.03;11.47;;;14.30;99.90;;;;;;4224459;28;20080;-62
2021/04/22 08:38:11;;;;;;;20.70;11.83;;;14.10;99.90;;;;;;4236593;28;20096;-70
2021/04/22 08:40:13;;;;;;;15.30;10.43;;;14.00;99.90;;;;;;4227023;28;20091;-68
2021/04/22 08:42:15;;;;;;;17.37;11.33;;;14.00;99.90;;;;;;4237092;28;20038;-66
2021/04/22 08:44:16;;;;;;;17.10;11.37;;;14.00;99.90;;;;;;4238416;27;20055;-63
2021/04/22 08:46:18;;;;;;;17.30;11.50;;;14.00;99.90;;;;;;4238612;27;20487;-63
2021/04/22 08:48:20;;;;;;;22.97;12.03;;;13.90;99.90;;;;;;4236993;28;20263;-64
2021/04/22 08:50:27;;;;;;;17.40;11.30;;;13.90;99.90;;;;;;4234508;27;20108;-68
2021/04/22 08:52:28;;;;;;;18.57;11.97;;;14.00;99.90;;;;;;4227673;27;20051;-63
2021/04/22 08:54:29;;;;;;;16.43;11.13;;;14.00;99.90;;;;;;4224237;28;20041;-65
2021/04/22 08:56:34;;;;;;;19.00;12.13;;;14.00;99.90;;;;;;4223996;28;20568;-64
2021/04/22 08:58:35;;;;;;;17.60;11.73;;;14.00;99.90;;;;;;4223015;28;20321;-68
2021/04/22 09:00:42;;;;;;;19.43;11.70;;;14.10;99.90;;;;;;4224149;28;20035;-62
2021/04/22 09:02:43;;;;;;;23.90;12.80;;;14.20;99.90;;;;;;4222754;28;20449;-62
2021/04/22 09:04:45;;;;;;;17.03;11.17;;;14.30;99.90;;;;;;4225113;27;20089;-65
2021/04/22 09:06:46;;;;;;;20.00;11.67;;;14.40;99.90;;;;;;4232961;27;20112;-61
2021/04/22 09:08:50;;;;;;;18.27;10.43;;;14.50;99.90;;;;;;4240677;27;20043;-64
2021/04/22 09:10:51;;;;;;;24.27;11.53;;;14.50;99.90;;;;;;4238506;27;20023;-66
2021/04/22 09:13:13;;;;;;;19.03;10.57;;;14.40;99.90;;;;;;4236465;27;20051;-64
2021/04/22 09:15:18;;;;;;;19.23;11.47;;;14.40;99.90;;;;;;4229795;27;20562;-63
2021/04/22 09:17:21;;;;;;;19.17;11.50;;;14.40;99.90;;;;;;4239564;27;20575;-67
2021/04/22 09:19:24;;;;;;;15.53;10.97;;;14.40;99.90;;;;;;4240858;27;20511;-70
2021/04/22 09:21:31;;;;;;;16.60;10.93;;;14.50;99.90;;;;;;4241232;27;20088;-69
2021/04/22 09:23:32;;;;;;;22.27;11.13;;;14.60;99.90;;;;;;4240615;27;20027;-65
2021/04/22 09:25:33;;;;;;;15.53;10.63;;;14.40;99.90;;;;;;4240884;27;20043;-63
2021/04/22 09:27:34;;;;;;;14.50;10.07;;;14.30;99.90;;;;;;4240506;27;20427;-68
2021/04/22 09:29:45;;;;;;;19.90;11.00;;;14.20;99.90;;;;;;4241323;27;20080;-68
2021/04/22 09:31:47;;;;;;;14.18;9.90;;;14.20;99.90;;;;;;4240951;27;20503;-63
2021/04/22 09:34:03;;;;;;;13.30;9.07;;;14.20;99.90;;;;;;4241177;27;20035;-65
2021/04/22 09:36:15;;;;;;;11.43;7.90;;;14.20;99.90;;;;;;4229434;27;20028;-66
2021/04/22 09:38:18;;;;;;;8.10;6.87;;;14.00;99.90;;;;;;4223628;28;20027;-70
2021/04/22 09:40:22;;;;;;;9.83;7.07;;;13.70;99.90;;;;;;4221069;28;20495;-69
2021/04/22 09:42:26;;;;;;;9.47;6.53;;;13.40;99.90;;;;;;4223451;28;20048;-67
2021/04/22 09:44:28;;;;;;;9.97;6.50;;;13.40;99.90;;;;;;4223245;28;20153;-65
2021/04/22 09:46:29;;;;;;;8.37;6.17;;;13.40;99.90;;;;;;4223456;28;20036;-66
2021/04/22 09:48:32;;;;;;;9.87;7.07;;;13.40;99.70;;;;;;4223237;28;20035;-64
2021/04/22 09:50:33;;;;;;;8.33;6.07;;;13.60;99.00;;;;;;4222993;27;20132;-67
2021/04/22 09:52:40;;;;;;;9.33;5.30;;;13.60;99.60;;;;;;4222953;28;20040;-64
2021/04/22 09:54:44;;;;;;;6.37;5.30;;;13.80;99.00;;;;;;4223208;28;20470;-67
2021/04/22 09:56:55;;;;;;;7.40;5.37;;;13.90;97.40;;;;;;4224404;27;20069;-64
2021/04/22 09:59:07;;;;;;;7.40;4.90;;;13.90;95.90;;;;;;4228830;27;20019;-66
2021/04/22 10:01:18;;;;;;;6.73;4.70;;;13.90;94.10;;;;;;4239970;27;21315;-63
2021/04/22 10:03:19;;;;;;;10.33;5.17;;;13.90;94.60;;;;;;4238784;27;20035;-64
2021/04/22 10:05:25;;;;;;;8.70;6.17;;;13.70;94.20;;;;;;4237721;27;20549;-68
2021/04/22 10:07:28;;;;;;;10.30;6.67;;;13.50;95.50;;;;;;4225791;27;20039;-64
2021/04/22 10:09:38;;;;;;;13.83;7.30;;;13.40;96.00;;;;;;4233964;27;21094;-63
2021/04/22 10:11:50;;;;;;;12.45;7.18;;;13.40;96.10;;;;;;4240009;27;20657;-68
2021/04/22 10:13:52;;;;;;;10.13;6.83;;;13.40;96.50;;;;;;4236999;27;20023;-65
2021/04/22 10:15:56;;;;;;;12.30;7.13;;;13.40;95.90;;;;;;4223466;28;20031;-70
2021/04/22 10:18:08;;;;;;;11.17;6.70;;;13.50;96.30;;;;;;4223274;28;20058;-63
2021/04/22 10:20:12;;;;;;;12.40;8.17;;;13.70;96.50;;;;;;4232128;27;20095;-65
2021/04/22 10:22:13;;;;;;;11.23;7.23;;;13.80;97.30;;;;;;4238680;27;20103;-63
2021/04/22 10:24:15;;;;;;;12.07;9.17;;;13.80;96.80;;;;;;4233967;27;20043;-72
2021/04/22 10:26:17;;;;;;;13.57;9.20;;;13.80;97.60;;;;;;4240113;27;20064;-67